createdAt,value
2019-04-04T00:00:59.939Z,44.73
2019-04-04T00:01:59.440Z,44.74
2019-04-04T00:02:59.475Z,44.78
2019-04-04T00:03:59.482Z,44.77
2019-04-04T00:04:59.515Z,44.76
2019-04-04T00:05:59.651Z,44.74
2019-04-04T00:06:59.595Z,44.76
2019-04-04T00:08:00.826Z,44.68
2019-04-04T00:09:02.863Z,44.73
2019-04-04T00:09:59.680Z,44.75
2019-04-04T00:10:59.686Z,44.73
2019-04-04T00:11:59.706Z,44.71
2019-04-04T00:12:59.707Z,44.69
2019-04-04T00:13:59.620Z,44.69
2019-04-04T00:14:59.755Z,44.73
2019-04-04T00:15:59.429Z,44.73
2019-04-04T00:16:59.464Z,44.72
2019-04-04T00:17:59.407Z,44.75
2019-04-04T00:18:59.430Z,44.7
2019-04-04T00:20:01.795Z,44.76
2019-04-04T00:21:03.438Z,44.73
2019-04-04T00:21:59.492Z,44.75
2019-04-04T00:22:59.480Z,44.75
2019-04-04T00:23:59.534Z,44.72
2019-04-04T00:24:59.537Z,44.77
2019-04-04T00:25:59.514Z,44.69
2019-04-04T00:26:59.549Z,44.73
2019-04-04T00:27:59.652Z,44.73
2019-04-04T00:29:01.961Z,44.72
2019-04-04T00:29:59.563Z,44.72
2019-04-04T00:30:59.641Z,44.69
2019-04-04T00:31:59.601Z,44.72
2019-04-04T00:32:59.425Z,44.71
2019-04-04T00:33:59.563Z,44.71
2019-04-04T00:35:00.718Z,44.73
2019-04-04T00:36:03.688Z,44.71
2019-04-04T00:36:59.460Z,44.72
2019-04-04T00:37:59.533Z,44.71
2019-04-04T00:38:59.501Z,44.7
2019-04-04T00:39:59.535Z,44.72
2019-04-04T00:40:59.542Z,44.77
2019-04-04T00:41:59.530Z,44.75
2019-04-04T00:42:59.594Z,44.72
2019-04-04T00:43:59.870Z,44.72
2019-04-04T00:44:59.607Z,44.69
2019-04-04T00:46:01.335Z,44.69
2019-04-04T00:47:02.429Z,44.72
2019-04-04T00:48:03.892Z,44.68
2019-04-04T00:48:59.631Z,44.75
2019-04-04T00:49:59.468Z,44.72
2019-04-04T00:50:59.376Z,44.75
2019-04-04T00:51:59.487Z,44.73
2019-04-04T00:52:59.370Z,44.76
2019-04-04T00:53:59.523Z,44.73
2019-04-04T00:54:59.456Z,44.75
2019-04-04T00:55:59.456Z,44.74
2019-04-04T00:56:59.496Z,44.73
2019-04-04T00:57:59.499Z,44.75
2019-04-04T00:58:59.584Z,44.72
2019-04-04T00:59:59.522Z,44.69
2019-04-04T01:00:59.538Z,44.76
2019-04-04T01:01:59.565Z,44.71
2019-04-04T01:02:59.549Z,44.71
2019-04-04T01:04:01.174Z,44.75
2019-04-04T01:05:02.553Z,44.72
2019-04-04T01:06:03.982Z,44.68
2019-04-04T01:06:59.620Z,44.73
2019-04-04T01:07:59.478Z,44.73
2019-04-04T01:08:59.453Z,44.71
2019-04-04T01:09:59.431Z,44.77
2019-04-04T01:10:59.507Z,44.78
2019-04-04T01:11:59.459Z,44.76
2019-04-04T01:12:59.476Z,44.7
2019-04-04T01:13:59.476Z,44.75
2019-04-04T01:15:00.929Z,44.75
2019-04-04T01:16:03.681Z,44.73
2019-04-04T01:16:59.571Z,44.73
2019-04-04T01:17:59.540Z,44.72
2019-04-04T01:18:59.576Z,44.69
2019-04-04T01:19:59.648Z,44.72
2019-04-04T01:20:59.377Z,44.73
2019-04-04T01:21:59.699Z,44.7
2019-04-04T01:22:59.625Z,44.73
2019-04-04T01:23:59.667Z,44.71
2019-04-04T01:25:01.887Z,44.72
2019-04-04T01:25:59.354Z,44.71
2019-04-04T01:26:59.480Z,44.72
2019-04-04T01:27:59.413Z,44.73
2019-04-04T01:28:59.494Z,44.75
2019-04-04T01:29:59.418Z,44.75
2019-04-04T01:30:59.544Z,44.73
2019-04-04T01:31:59.381Z,44.77
2019-04-04T01:32:59.451Z,44.72
2019-04-04T01:33:59.687Z,44.71
2019-04-04T01:34:59.846Z,44.74
2019-04-04T01:35:59.530Z,44.76
2019-04-04T01:36:59.545Z,44.72
2019-04-04T01:37:59.617Z,44.7
2019-04-04T01:39:01.020Z,44.74
2019-04-04T01:40:03.219Z,44.72
2019-04-04T01:40:59.681Z,44.71
2019-04-04T01:41:59.640Z,44.71
2019-04-04T01:42:59.430Z,44.72
2019-04-04T01:44:05.763Z,44.75
2019-04-04T01:44:59.481Z,44.75
2019-04-04T01:45:59.421Z,44.75
2019-04-04T01:46:59.844Z,44.75
2019-04-04T01:47:59.570Z,44.72
2019-04-04T01:48:59.741Z,44.72
2019-04-04T01:49:59.437Z,44.76
2019-04-04T01:50:59.414Z,44.73
2019-04-04T01:51:59.579Z,44.74
2019-04-04T01:53:00.248Z,44.75
2019-04-04T01:54:02.019Z,44.71
2019-04-04T01:55:04.445Z,44.75
2019-04-04T01:55:59.565Z,44.77
2019-04-04T01:56:59.596Z,44.78
2019-04-04T01:57:59.863Z,44.75
2019-04-04T01:58:59.610Z,44.82
2019-04-04T01:59:59.701Z,44.78
2019-04-04T02:00:59.352Z,44.74
2019-04-04T02:01:59.378Z,44.81
2019-04-04T02:02:59.355Z,44.76
2019-04-04T02:03:59.422Z,44.77
2019-04-04T02:04:59.370Z,44.75
2019-04-04T02:05:59.386Z,44.78
2019-04-04T02:06:59.990Z,44.78
2019-04-04T02:08:01.902Z,44.8
2019-04-04T02:09:03.777Z,44.78
2019-04-04T02:09:59.993Z,44.76
2019-04-04T02:10:59.873Z,44.78
2019-04-04T02:11:59.653Z,44.76
2019-04-04T02:12:59.654Z,44.81
2019-04-04T02:13:59.359Z,44.75
2019-04-04T02:14:59.534Z,44.73
2019-04-04T02:15:59.563Z,44.71
2019-04-04T02:16:59.532Z,44.78
2019-04-04T02:17:59.642Z,44.78
2019-04-04T02:18:59.699Z,44.76
2019-04-04T02:19:59.502Z,44.76
2019-04-04T02:20:59.640Z,44.77
2019-04-04T02:22:00.663Z,44.78
2019-04-04T02:23:02.185Z,44.75
2019-04-04T02:24:02.303Z,44.7
2019-04-04T02:25:04.089Z,44.77
2019-04-04T02:25:59.469Z,44.75
2019-04-04T02:26:59.470Z,44.77
2019-04-04T02:27:59.472Z,44.77
2019-04-04T02:28:59.452Z,44.77
2019-04-04T02:29:59.597Z,44.67
2019-04-04T02:30:59.550Z,44.75
2019-04-04T02:31:59.582Z,44.75
2019-04-04T02:33:01.100Z,44.74
2019-04-04T02:33:59.546Z,44.74
2019-04-04T02:34:59.537Z,44.7
2019-04-04T02:35:59.597Z,44.74
2019-04-04T02:36:59.745Z,44.79
2019-04-04T02:37:59.661Z,44.79
2019-04-04T02:39:01.066Z,44.78
2019-04-04T02:39:59.620Z,44.74
2019-04-04T02:40:59.403Z,44.77
2019-04-04T02:41:59.469Z,44.74
2019-04-04T02:42:59.507Z,44.75
2019-04-04T02:44:01.043Z,44.79
2019-04-04T02:44:59.455Z,44.72
2019-04-04T02:45:59.474Z,44.69
2019-04-04T02:46:59.490Z,44.74
2019-04-04T02:47:59.617Z,44.77
2019-04-04T02:48:59.545Z,44.77
2019-04-04T02:50:02.650Z,44.69
2019-04-04T02:50:59.625Z,44.73
2019-04-04T02:51:59.699Z,44.7
2019-04-04T02:52:59.599Z,44.78
2019-04-04T02:53:59.961Z,44.76
2019-04-04T02:54:59.750Z,44.74
2019-04-04T02:56:03.957Z,44.75
2019-04-04T02:56:59.459Z,44.79
2019-04-04T02:57:59.508Z,44.73
2019-04-04T02:58:59.425Z,44.74
2019-04-04T02:59:59.450Z,44.75
2019-04-04T03:01:00.942Z,44.74
2019-04-04T03:01:59.451Z,44.79
2019-04-04T03:02:59.465Z,44.77
2019-04-04T03:03:59.473Z,44.75
2019-04-04T03:04:59.577Z,44.78
2019-04-04T03:05:59.617Z,44.76
2019-04-04T03:06:59.543Z,44.77
2019-04-04T03:08:05.013Z,44.76
2019-04-04T03:08:59.562Z,44.8
2019-04-04T03:09:59.671Z,44.75
2019-04-04T03:10:59.581Z,44.77
2019-04-04T03:11:59.638Z,44.75
2019-04-04T03:12:59.860Z,44.8
2019-04-04T03:14:05.094Z,44.79
2019-04-04T03:14:59.495Z,44.8
2019-04-04T03:16:00.064Z,44.76
2019-04-04T03:16:59.431Z,44.77
2019-04-04T03:18:05.663Z,44.8
2019-04-04T03:18:59.394Z,44.79
2019-04-04T03:19:59.409Z,44.79
2019-04-04T03:20:59.429Z,44.74
2019-04-04T03:21:59.457Z,44.81
2019-04-04T03:23:01.932Z,44.77
2019-04-04T03:23:59.474Z,44.78
2019-04-04T03:24:59.483Z,44.73
2019-04-04T03:25:59.442Z,44.76
2019-04-04T03:26:59.662Z,44.78
2019-04-04T03:27:59.748Z,44.76
2019-04-04T03:29:11.168Z,44.77
2019-04-04T03:29:59.550Z,44.74
2019-04-04T03:31:04.681Z,44.73
2019-04-04T03:31:59.542Z,44.74
2019-04-04T03:32:59.451Z,44.7
2019-04-04T03:34:13.060Z,44.78
2019-04-04T03:34:59.518Z,44.78
2019-04-04T03:36:01.619Z,44.72
2019-04-04T03:36:59.730Z,44.72
2019-04-04T03:37:59.474Z,44.67
2019-04-04T03:38:59.493Z,44.72
2019-04-04T03:39:59.522Z,44.64
2019-04-04T03:40:59.710Z,44.7
2019-04-04T03:41:59.469Z,44.66
2019-04-04T03:42:59.609Z,44.7
2019-04-04T03:43:59.502Z,44.65
2019-04-04T03:44:59.753Z,44.64
2019-04-04T03:46:02.167Z,44.65
2019-04-04T03:46:59.670Z,44.63
2019-04-04T03:47:59.576Z,44.6
2019-04-04T03:48:59.359Z,44.61
2019-04-04T03:49:59.463Z,44.63
2019-04-04T03:51:05.567Z,44.57
2019-04-04T03:51:59.351Z,44.57
2019-04-04T03:52:59.455Z,44.61
2019-04-04T03:53:59.571Z,44.61
2019-04-04T03:54:59.598Z,44.6
2019-04-04T03:56:01.968Z,44.58
2019-04-04T03:56:59.387Z,44.49
2019-04-04T03:57:59.883Z,44.48
2019-04-04T03:59:01.203Z,44.44
2019-04-04T03:59:59.456Z,44.44
2019-04-04T04:00:59.688Z,44.47
2019-04-04T04:01:59.465Z,44.44
2019-04-04T04:02:59.682Z,44.41
2019-04-04T04:03:59.548Z,44.4
2019-04-04T04:05:02.628Z,44.34
2019-04-04T04:05:59.802Z,44.37
2019-04-04T04:06:59.640Z,44.3
2019-04-04T04:07:59.324Z,44.35
2019-04-04T04:08:59.394Z,44.25
2019-04-04T04:10:00.763Z,44.35
2019-04-04T04:10:59.389Z,44.37
2019-04-04T04:11:59.532Z,44.3
2019-04-04T04:12:59.380Z,44.33
2019-04-04T04:13:59.500Z,44.32
2019-04-04T04:14:59.450Z,44.34
2019-04-04T04:16:04.260Z,44.3
2019-04-04T04:16:59.465Z,44.34
2019-04-04T04:17:59.487Z,44.27
2019-04-04T04:18:59.532Z,44.33
2019-04-04T04:20:05.504Z,44.38
2019-04-04T04:20:59.708Z,44.37
2019-04-04T04:21:59.516Z,44.32
2019-04-04T04:22:59.521Z,44.39
2019-04-04T04:23:59.703Z,44.32
2019-04-04T04:25:04.208Z,44.35
2019-04-04T04:25:59.362Z,44.43
2019-04-04T04:26:59.369Z,44.34
2019-04-04T04:28:03.696Z,44.42
2019-04-04T04:28:59.428Z,44.34
2019-04-04T04:30:08.082Z,44.36
2019-04-04T04:30:59.339Z,44.44
2019-04-04T04:31:59.429Z,44.41
2019-04-04T04:32:59.451Z,44.37
2019-04-04T04:34:02.276Z,44.41
2019-04-04T04:34:59.591Z,44.39
2019-04-04T04:35:59.434Z,44.35
2019-04-04T04:36:59.502Z,44.38
2019-04-04T04:37:59.572Z,44.35
2019-04-04T04:39:00.562Z,44.37
2019-04-04T04:39:59.511Z,44.38
2019-04-04T04:40:59.535Z,44.38
2019-04-04T04:42:00.069Z,44.39
2019-04-04T04:43:01.417Z,44.37
2019-04-04T04:43:59.578Z,44.39
2019-04-04T04:44:59.321Z,44.39
2019-04-04T04:45:59.338Z,44.37
2019-04-04T04:46:59.380Z,44.41
2019-04-04T04:47:59.412Z,44.36
2019-04-04T04:49:04.686Z,44.36
2019-04-04T04:49:59.774Z,44.34
2019-04-04T04:50:59.551Z,44.29
2019-04-04T04:51:59.534Z,44.3
2019-04-04T04:52:59.468Z,44.34
2019-04-04T04:53:59.466Z,44.32
2019-04-04T04:54:59.537Z,44.31
2019-04-04T04:56:01.175Z,44.3
2019-04-04T04:57:05.465Z,44.3
2019-04-04T04:57:59.528Z,44.34
2019-04-04T04:58:59.505Z,44.33
2019-04-04T04:59:59.493Z,44.29
2019-04-04T05:00:59.804Z,44.28
2019-04-04T05:01:59.666Z,44.26
2019-04-04T05:02:59.569Z,44.27
2019-04-04T05:04:03.141Z,44.28
2019-04-04T05:05:00.321Z,44.31
2019-04-04T05:06:03.691Z,44.26
2019-04-04T05:06:59.349Z,44.26
2019-04-04T05:07:59.411Z,44.28
2019-04-04T05:08:59.387Z,44.26
2019-04-04T05:09:59.450Z,44.27
2019-04-04T05:10:59.382Z,44.29
2019-04-04T05:11:59.427Z,44.28
2019-04-04T05:12:59.523Z,44.23
2019-04-04T05:13:59.622Z,44.27
2019-04-04T05:15:02.525Z,44.26
2019-04-04T05:15:59.442Z,44.22
2019-04-04T05:16:59.486Z,44.23
2019-04-04T05:17:59.447Z,44.26
2019-04-04T05:18:59.656Z,44.21
2019-04-04T05:19:59.494Z,44.25
2019-04-04T05:21:02.920Z,44.21
2019-04-04T05:21:59.656Z,44.19
2019-04-04T05:22:59.352Z,44.21
2019-04-04T05:23:59.434Z,44.22
2019-04-04T05:25:09.483Z,44.19
2019-04-04T05:26:03.631Z,44.19
2019-04-04T05:26:59.404Z,44.16
2019-04-04T05:27:59.457Z,44.22
2019-04-04T05:28:59.469Z,44.14
2019-04-04T05:29:59.430Z,44.17
2019-04-04T05:30:59.521Z,44.15
2019-04-04T05:31:59.447Z,44.14
2019-04-04T05:32:59.509Z,44.16
2019-04-04T05:34:00.075Z,44.16
2019-04-04T05:35:02.383Z,44.16
2019-04-04T05:35:59.515Z,44.16
2019-04-04T05:36:59.558Z,44.14
2019-04-04T05:37:59.677Z,44.13
2019-04-04T05:38:59.608Z,44.17
2019-04-04T05:39:59.580Z,44.14
2019-04-04T05:40:59.410Z,44.18
2019-04-04T05:42:01.514Z,44.17
2019-04-04T05:42:59.341Z,44.19
2019-04-04T05:43:59.311Z,44.15
2019-04-04T05:44:59.303Z,44.14
2019-04-04T05:45:59.398Z,44.14
2019-04-04T05:47:00.355Z,44.18
2019-04-04T05:48:00.234Z,44.14
2019-04-04T05:49:08.767Z,44.17
2019-04-04T05:49:59.354Z,44.15
2019-04-04T05:50:59.411Z,44.11
2019-04-04T05:51:59.461Z,44.13
2019-04-04T05:52:59.532Z,44.13
2019-04-04T05:53:59.706Z,44.1
2019-04-04T05:54:59.570Z,44.14
2019-04-04T05:56:00.658Z,44.14
2019-04-04T05:56:59.535Z,44.11
2019-04-04T05:57:59.570Z,44.08
2019-04-04T05:58:59.335Z,44.11
2019-04-04T05:59:59.387Z,44.1
2019-04-04T06:01:02.995Z,44.09
2019-04-04T06:01:59.411Z,44.14
2019-04-04T06:02:59.366Z,44.07
2019-04-04T06:03:59.411Z,44.1
2019-04-04T06:04:59.426Z,44.1
2019-04-04T06:06:02.340Z,44.12
2019-04-04T06:06:59.414Z,44.11
2019-04-04T06:07:59.542Z,44.11
2019-04-04T06:08:59.655Z,44.12
2019-04-04T06:09:59.431Z,44.12
2019-04-04T06:10:59.459Z,44.12
2019-04-04T06:11:59.532Z,44.13
2019-04-04T06:12:59.467Z,44.15
2019-04-04T06:14:00.006Z,44.13
2019-04-04T06:15:01.412Z,44.14
2019-04-04T06:15:59.546Z,44.17
2019-04-04T06:16:59.230Z,44.15
2019-04-04T06:17:59.265Z,44.19
2019-04-04T06:18:59.285Z,44.15
2019-04-04T06:19:59.272Z,44.21
2019-04-04T06:20:59.293Z,44.16
2019-04-04T06:21:59.331Z,44.16
2019-04-04T06:22:59.487Z,44.15
2019-04-04T06:23:59.317Z,44.2
2019-04-04T06:25:00.268Z,44.18
2019-04-04T06:25:59.429Z,44.21
2019-04-04T06:26:59.361Z,44.16
2019-04-04T06:27:59.515Z,44.17
2019-04-04T06:28:59.735Z,44.17
2019-04-04T06:29:59.503Z,44.22
2019-04-04T06:31:01.148Z,44.17
2019-04-04T06:32:01.242Z,44.21
2019-04-04T06:32:59.536Z,44.17
2019-04-04T06:33:59.543Z,44.19
2019-04-04T06:34:59.490Z,44.21
2019-04-04T06:35:59.303Z,44.19
2019-04-04T06:36:59.321Z,44.22
2019-04-04T06:37:59.307Z,44.16
2019-04-04T06:38:59.389Z,44.18
2019-04-04T06:39:59.915Z,44.17
2019-04-04T06:41:01.791Z,44.17
2019-04-04T06:42:04.168Z,44.19
2019-04-04T06:42:59.397Z,44.19
2019-04-04T06:43:59.377Z,44.11
2019-04-04T06:44:59.465Z,44.14
2019-04-04T06:45:59.485Z,44.14
2019-04-04T06:47:02.467Z,44.12
2019-04-04T06:47:59.435Z,44.14
2019-04-04T06:48:59.640Z,44.11
2019-04-04T06:49:59.543Z,44.14
2019-04-04T06:50:59.500Z,44.12
2019-04-04T06:51:59.490Z,44.09
2019-04-04T06:53:00.335Z,44.06
2019-04-04T06:54:00.140Z,44.11
2019-04-04T06:54:59.289Z,44.12
2019-04-04T06:56:01.329Z,44.09
2019-04-04T06:57:05.161Z,44.1
2019-04-04T06:57:59.407Z,44.1
2019-04-04T06:58:59.313Z,44.1
2019-04-04T06:59:59.381Z,44.08
2019-04-04T07:00:59.370Z,44.06
2019-04-04T07:01:59.353Z,44.06
2019-04-04T07:02:59.365Z,44.05
2019-04-04T07:04:00.547Z,44.02
2019-04-04T07:04:59.374Z,44
2019-04-04T07:05:59.478Z,44
2019-04-04T07:06:59.439Z,44.02
2019-04-04T07:07:59.423Z,44.03
2019-04-04T07:08:59.448Z,44
2019-04-04T07:09:59.474Z,43.99
2019-04-04T07:11:21.978Z,43.98
2019-04-04T07:11:59.292Z,43.97
2019-04-04T07:14:00.097Z,44
2019-04-04T07:14:59.330Z,43.99
2019-04-04T07:16:08.577Z,43.96
2019-04-04T07:17:00.580Z,43.96
2019-04-04T07:17:59.382Z,43.98
2019-04-04T07:18:59.426Z,43.97
2019-04-04T07:19:59.380Z,44.01
2019-04-04T07:20:59.488Z,43.96
2019-04-04T07:21:59.480Z,43.96
2019-04-04T07:22:59.426Z,43.99
2019-04-04T07:24:00.302Z,43.95
2019-04-04T07:25:07.138Z,43.95
2019-04-04T07:25:59.498Z,43.99
2019-04-04T07:26:59.494Z,43.97
2019-04-04T07:27:59.613Z,43.95
2019-04-04T07:28:59.262Z,43.97
2019-04-04T07:29:59.244Z,43.94
2019-04-04T07:31:02.754Z,43.95
2019-04-04T07:31:59.391Z,43.97
2019-04-04T07:32:59.291Z,43.93
2019-04-04T07:33:59.475Z,43.95
2019-04-04T07:34:59.465Z,43.93
2019-04-04T07:35:59.673Z,43.94
2019-04-04T07:36:59.391Z,43.92
2019-04-04T07:37:59.448Z,43.95
2019-04-04T07:39:01.281Z,43.93
2019-04-04T07:40:04.821Z,43.94
2019-04-04T07:40:59.399Z,43.97
2019-04-04T07:41:59.415Z,43.9
2019-04-04T07:42:59.432Z,43.94
2019-04-04T07:43:59.416Z,43.91
2019-04-04T07:44:59.316Z,43.99
2019-04-04T07:46:59.360Z,43.92
2019-04-04T07:47:59.389Z,43.93
2019-04-04T07:48:59.408Z,43.93
2019-04-04T07:49:59.370Z,43.94
2019-04-04T07:50:59.569Z,43.93
2019-04-04T07:52:02.554Z,43.94
2019-04-04T07:52:59.342Z,43.93
2019-04-04T07:53:59.408Z,43.89
2019-04-04T07:54:59.493Z,43.93
2019-04-04T07:55:59.744Z,43.9
2019-04-04T07:56:59.524Z,43.87
2019-04-04T07:57:59.413Z,43.93
2019-04-04T07:58:59.476Z,43.9
2019-04-04T07:59:59.449Z,43.89
2019-04-04T08:00:59.461Z,43.89
2019-04-04T08:01:59.551Z,43.93
2019-04-04T08:02:59.506Z,43.9
2019-04-04T08:03:59.264Z,43.92
2019-04-04T08:04:59.204Z,43.92
2019-04-04T08:05:59.246Z,43.96
2019-04-04T08:06:59.463Z,43.95
2019-04-04T08:07:59.264Z,43.94
2019-04-04T08:08:59.316Z,43.92
2019-04-04T08:09:59.267Z,43.96
2019-04-04T08:10:59.420Z,43.92
2019-04-04T08:11:59.477Z,43.96
2019-04-04T08:12:59.349Z,43.89
2019-04-04T08:13:59.485Z,43.96
2019-04-04T08:14:59.357Z,43.97
2019-04-04T08:15:59.385Z,43.99
2019-04-04T08:16:59.402Z,43.97
2019-04-04T08:17:59.532Z,43.93
2019-04-04T08:18:59.438Z,43.97
2019-04-04T08:20:00.397Z,43.99
2019-04-04T08:20:59.559Z,43.97
2019-04-04T08:21:59.693Z,43.99
2019-04-04T08:22:59.238Z,43.97
2019-04-04T08:23:59.242Z,44
2019-04-04T08:24:59.315Z,43.98
2019-04-04T08:25:59.348Z,43.95
2019-04-04T08:26:59.344Z,43.95
2019-04-04T08:27:59.336Z,43.98
2019-04-04T08:28:59.295Z,43.96
2019-04-04T08:29:59.432Z,44
2019-04-04T08:30:59.447Z,43.95
2019-04-04T08:31:59.353Z,43.99
2019-04-04T08:32:59.387Z,44.02
2019-04-04T08:33:59.501Z,43.95
2019-04-04T08:34:59.384Z,43.99
2019-04-04T08:36:07.162Z,44.01
2019-04-04T08:36:59.559Z,44.06
2019-04-04T08:37:59.465Z,44.01
2019-04-04T08:38:59.200Z,43.99
2019-04-04T08:39:59.388Z,43.99
2019-04-04T08:40:59.438Z,44.03
2019-04-04T08:41:59.353Z,43.97
2019-04-04T08:42:59.262Z,44.03
2019-04-04T08:43:59.416Z,44.01
2019-04-04T08:44:59.299Z,44
2019-04-04T08:45:59.323Z,44.06
2019-04-04T08:46:59.329Z,43.99
2019-04-04T08:47:59.319Z,44.02
2019-04-04T08:48:59.223Z,44.04
2019-04-04T08:49:59.354Z,44.05
2019-04-04T08:50:59.401Z,44.04
2019-04-04T08:51:59.364Z,44
2019-04-04T08:52:59.425Z,44.01
2019-04-04T08:53:59.413Z,44.02
2019-04-04T08:54:59.435Z,44.03
2019-04-04T08:55:59.253Z,44.03
2019-04-04T08:56:59.245Z,44.02
2019-04-04T08:57:59.266Z,44.06
2019-04-04T08:58:59.327Z,44.05
2019-04-04T08:59:59.347Z,44.03
2019-04-04T09:00:59.303Z,44.03
2019-04-04T09:01:59.642Z,44.1
2019-04-04T09:02:59.437Z,44.03
2019-04-04T09:03:59.348Z,44.01
2019-04-04T09:05:13.027Z,44.03
2019-04-04T09:05:59.371Z,44.02
2019-04-04T09:06:59.439Z,44.04
2019-04-04T09:07:59.484Z,44.05
2019-04-04T09:08:59.439Z,44.07
2019-04-04T09:09:59.451Z,44.04
2019-04-04T09:10:59.528Z,44.05
2019-04-04T09:11:59.390Z,44.05
2019-04-04T09:12:59.472Z,44.04
2019-04-04T09:13:59.173Z,44
2019-04-04T09:14:59.188Z,44.04
2019-04-04T09:15:59.268Z,44.03
2019-04-04T09:16:59.222Z,44
2019-04-04T09:17:59.241Z,44
2019-04-04T09:18:59.260Z,44.03
2019-04-04T09:19:59.242Z,44.05
2019-04-04T09:20:59.306Z,44.02
2019-04-04T09:21:59.472Z,44.03
2019-04-04T09:22:59.390Z,44.03
2019-04-04T09:24:01.161Z,43.99
2019-04-04T09:25:01.974Z,44.08
2019-04-04T09:26:06.737Z,44
2019-04-04T09:26:59.387Z,44.02
2019-04-04T09:27:59.372Z,44.05
2019-04-04T09:28:59.376Z,44.04
2019-04-04T09:29:59.396Z,44.01
2019-04-04T09:30:59.192Z,44.06
2019-04-04T09:31:59.232Z,44.02
2019-04-04T09:32:59.318Z,44.03
2019-04-04T09:33:59.264Z,44.05
2019-04-04T09:34:59.279Z,43.99
2019-04-04T09:35:59.243Z,44.01
2019-04-04T09:36:59.299Z,44.03
2019-04-04T09:37:59.297Z,44.03
2019-04-04T09:38:59.389Z,44.03
2019-04-04T09:39:59.386Z,43.97
2019-04-04T09:40:59.403Z,43.97
2019-04-04T09:41:59.448Z,43.98
2019-04-04T09:42:59.398Z,43.98
2019-04-04T09:43:59.356Z,44.01
2019-04-04T09:44:59.653Z,44.03
2019-04-04T09:45:59.504Z,43.99
2019-04-04T09:47:06.117Z,43.98
2019-04-04T09:47:59.399Z,44.03
2019-04-04T09:48:59.453Z,44.01
2019-04-04T09:49:59.182Z,43.98
2019-04-04T09:50:59.336Z,43.99
2019-04-04T09:51:59.166Z,44.01
2019-04-04T09:52:59.241Z,43.98
2019-04-04T09:53:59.201Z,43.98
2019-04-04T09:54:59.334Z,43.95
2019-04-04T09:55:59.241Z,43.97
2019-04-04T09:56:59.268Z,43.99
2019-04-04T09:57:59.292Z,43.98
2019-04-04T09:58:59.268Z,43.98
2019-04-04T09:59:59.357Z,43.99
2019-04-04T10:00:59.370Z,43.93
2019-04-04T10:01:59.506Z,43.94
2019-04-04T10:02:59.313Z,43.95
2019-04-04T10:03:59.359Z,43.93
2019-04-04T10:04:59.368Z,43.97
2019-04-04T10:05:59.358Z,43.95
2019-04-04T10:06:59.444Z,43.97
2019-04-04T10:07:59.607Z,43.99
2019-04-04T10:08:59.208Z,43.97
2019-04-04T10:09:59.228Z,43.98
2019-04-04T10:10:59.242Z,43.98
2019-04-04T10:11:59.244Z,43.95
2019-04-04T10:12:59.289Z,43.94
2019-04-04T10:13:59.371Z,43.99
2019-04-04T10:14:59.304Z,43.97
2019-04-04T10:15:59.366Z,43.95
2019-04-04T10:16:59.315Z,43.97
2019-04-04T10:17:59.340Z,43.95
2019-04-04T10:18:59.351Z,43.95
2019-04-04T10:19:59.368Z,43.93
2019-04-04T10:21:13.071Z,43.93
2019-04-04T10:21:59.405Z,43.94
2019-04-04T10:22:59.381Z,43.89
2019-04-04T10:23:59.825Z,43.89
2019-04-04T10:24:59.483Z,43.9
2019-04-04T10:25:59.619Z,43.93
2019-04-04T10:26:59.879Z,43.97
2019-04-04T10:27:59.173Z,43.9
2019-04-04T10:28:59.197Z,43.93
2019-04-04T10:29:59.398Z,43.88
2019-04-04T10:30:59.374Z,43.92
2019-04-04T10:31:59.214Z,43.92
2019-04-04T10:32:59.336Z,43.92
2019-04-04T10:33:59.173Z,43.88
2019-04-04T10:34:59.261Z,43.91
2019-04-04T10:35:59.298Z,43.86
2019-04-04T10:36:59.328Z,43.9
2019-04-04T10:37:59.301Z,43.87
2019-04-04T10:38:59.336Z,43.88
2019-04-04T10:39:59.362Z,43.86
2019-04-04T10:40:59.330Z,43.91
2019-04-04T10:41:59.330Z,43.9
2019-04-04T10:42:59.386Z,43.85
2019-04-04T10:43:59.479Z,43.88
2019-04-04T10:44:59.230Z,43.86
2019-04-04T10:45:59.231Z,43.88
2019-04-04T10:46:59.222Z,43.87
2019-04-04T10:47:59.215Z,43.85
2019-04-04T10:48:59.314Z,43.84
2019-04-04T10:49:59.273Z,43.91
2019-04-04T10:50:59.265Z,43.88
2019-04-04T10:51:59.361Z,43.9
2019-04-04T10:52:59.289Z,43.88
2019-04-04T10:53:59.314Z,43.88
2019-04-04T10:55:02.380Z,43.88
2019-04-04T10:55:59.458Z,43.88
2019-04-04T10:56:59.411Z,43.85
2019-04-04T10:57:59.352Z,43.92
2019-04-04T10:58:59.375Z,43.86
2019-04-04T10:59:59.506Z,43.88
2019-04-04T11:00:59.531Z,43.85
2019-04-04T11:02:01.278Z,43.85
2019-04-04T11:02:59.134Z,43.82
2019-04-04T11:03:59.334Z,43.87
2019-04-04T11:04:59.165Z,43.88
2019-04-04T11:05:59.196Z,43.87
2019-04-04T11:06:59.235Z,43.87
2019-04-04T11:07:59.390Z,43.87
2019-04-04T11:08:59.230Z,43.82
2019-04-04T11:09:59.376Z,43.88
2019-04-04T11:10:59.422Z,43.9
2019-04-04T11:11:59.255Z,43.88
2019-04-04T11:12:59.380Z,43.9
2019-04-04T11:13:59.305Z,43.88
2019-04-04T11:14:59.301Z,43.86
2019-04-04T11:15:59.326Z,43.87
2019-04-04T11:16:59.324Z,43.85
2019-04-04T11:17:59.399Z,43.86
2019-04-04T11:18:59.393Z,43.87
2019-04-04T11:19:59.359Z,43.88
2019-04-04T11:20:59.225Z,43.85
2019-04-04T11:21:59.284Z,43.82
2019-04-04T11:22:59.222Z,43.9
2019-04-04T11:23:59.572Z,43.87
2019-04-04T11:24:59.222Z,43.85
2019-04-04T11:25:59.243Z,43.84
2019-04-04T11:26:59.379Z,43.83
2019-04-04T11:27:59.268Z,43.85
2019-04-04T11:28:59.379Z,43.86
2019-04-04T11:29:59.276Z,43.83
2019-04-04T11:30:59.302Z,43.83
2019-04-04T11:31:59.340Z,43.84
2019-04-04T11:32:59.476Z,43.88
2019-04-04T11:33:59.408Z,43.86
2019-04-04T11:34:59.412Z,43.86
2019-04-04T11:35:59.374Z,43.84
2019-04-04T11:36:59.383Z,43.85
2019-04-04T11:37:59.389Z,43.83
2019-04-04T11:38:59.150Z,43.84
2019-04-04T11:39:59.192Z,43.82
2019-04-04T11:40:59.333Z,43.82
2019-04-04T11:41:59.290Z,43.87
2019-04-04T11:42:59.206Z,43.84
2019-04-04T11:43:59.282Z,43.86
2019-04-04T11:44:59.196Z,43.87
2019-04-04T11:45:59.225Z,43.81
2019-04-04T11:46:59.262Z,43.86
2019-04-04T11:47:59.245Z,43.86
2019-04-04T11:48:59.369Z,43.84
2019-04-04T11:49:59.257Z,43.83
2019-04-04T11:50:59.303Z,43.85
2019-04-04T11:51:59.478Z,43.83
2019-04-04T11:52:59.284Z,43.85
2019-04-04T11:53:59.347Z,43.85
2019-04-04T11:54:59.434Z,43.83
2019-04-04T11:55:59.388Z,43.85
2019-04-04T11:56:59.552Z,43.83
2019-04-04T11:57:59.189Z,43.83
2019-04-04T11:58:59.175Z,43.8
2019-04-04T11:59:59.208Z,43.81
2019-04-04T12:00:59.223Z,43.8
2019-04-04T12:01:59.298Z,43.8
2019-04-04T12:02:59.208Z,43.78
2019-04-04T12:03:59.254Z,43.81
2019-04-04T12:04:59.301Z,43.76
2019-04-04T12:05:59.287Z,43.83
2019-04-04T12:06:59.327Z,43.81
2019-04-04T12:07:59.329Z,43.83
2019-04-04T12:08:59.387Z,43.78
2019-04-04T12:10:08.668Z,43.78
2019-04-04T12:10:59.421Z,43.83
2019-04-04T12:11:59.466Z,43.8
2019-04-04T12:12:59.573Z,43.8
2019-04-04T12:13:59.529Z,43.83
2019-04-04T12:14:59.130Z,43.83
2019-04-04T12:15:59.215Z,43.81
2019-04-04T12:16:59.144Z,43.84
2019-04-04T12:18:00.176Z,43.85
2019-04-04T12:18:59.194Z,43.83
2019-04-04T12:19:59.252Z,43.81
2019-04-04T12:20:59.224Z,43.85
2019-04-04T12:21:59.250Z,43.82
2019-04-04T12:22:59.249Z,43.81
2019-04-04T12:23:59.256Z,43.81
2019-04-04T12:24:59.309Z,43.78
2019-04-04T12:25:59.261Z,43.83
2019-04-04T12:26:59.281Z,43.82
2019-04-04T12:27:59.324Z,43.81
2019-04-04T12:28:59.432Z,43.79
2019-04-04T12:29:59.287Z,43.79
2019-04-04T12:30:59.428Z,43.82
2019-04-04T12:31:59.483Z,43.81
2019-04-04T12:32:59.376Z,43.8
2019-04-04T12:34:02.612Z,43.8
2019-04-04T12:34:59.184Z,43.77
2019-04-04T12:35:59.182Z,43.8
2019-04-04T12:36:59.211Z,43.8
2019-04-04T12:37:59.227Z,43.79
2019-04-04T12:38:59.202Z,43.81
2019-04-04T12:39:59.397Z,43.8
2019-04-04T12:40:59.217Z,43.79
2019-04-04T12:41:59.248Z,43.79
2019-04-04T12:42:59.297Z,43.8
2019-04-04T12:43:59.291Z,43.79
2019-04-04T12:44:59.286Z,43.78
2019-04-04T12:45:59.336Z,43.81
2019-04-04T12:46:59.316Z,43.79
2019-04-04T12:47:59.335Z,43.8
2019-04-04T12:48:59.381Z,43.81
2019-04-04T12:49:59.454Z,43.79
2019-04-04T12:50:59.350Z,43.81
2019-04-04T12:51:59.227Z,43.79
2019-04-04T12:52:59.138Z,43.8
2019-04-04T12:53:59.256Z,43.78
2019-04-04T12:54:59.378Z,43.78
2019-04-04T12:55:59.215Z,43.81
2019-04-04T12:56:59.212Z,43.72
2019-04-04T12:57:59.354Z,43.77